sensor_id;sensor_type;location;lat;lon;timestamp;P1;durP1;ratioP1;P2;durP2;ratioP2
12163;SDS011;6145;50.192;10.064;2023-08-31T06:03:07;8.83;;;6.23;;
12163;SDS011;6145;50.192;10.064;2023-08-31T06:05:35;9.10;;;6.70;;
12163;SDS011;6145;50.192;10.064;2023-08-31T06:08:05;9.67;;;6.67;;
12163;SDS011;6145;50.192;10.064;2023-08-31T06:10:32;6.87;;;6.17;;
12163;SDS011;6145;50.192;10.064;2023-08-31T06:12:59;9.20;;;6.57;;
12163;SDS011;6145;50.192;10.064;2023-08-31T06:15:26;6.90;;;6.20;;
12163;SDS011;6145;50.192;10.064;2023-08-31T06:17:53;7.37;;;5.83;;
12163;SDS011;6145;50.192;10.064;2023-08-31T06:20:21;7.00;;;5.60;;
12163;SDS011;6145;50.192;10.064;2023-08-31T06:22:48;7.93;;;7.17;;
12163;SDS011;6145;50.192;10.064;2023-08-31T06:25:15;8.63;;;6.93;;
12163;SDS011;6145;50.192;10.064;2023-08-31T06:27:43;9.20;;;6.70;;
12163;SDS011;6145;50.192;10.064;2023-08-31T06:30:11;12.00;;;8.23;;
12163;SDS011;6145;50.192;10.064;2023-08-31T06:32:41;7.20;;;6.23;;
12163;SDS011;6145;50.192;10.064;2023-08-31T06:35:08;5.57;;;4.43;;
12163;SDS011;6145;50.192;10.064;2023-08-31T06:37:37;8.70;;;4.73;;
12163;SDS011;6145;50.192;10.064;2023-08-31T06:40:05;7.27;;;6.10;;
12163;SDS011;6145;50.192;10.064;2023-08-31T06:42:33;6.50;;;5.57;;
12163;SDS011;6145;50.192;10.064;2023-08-31T06:45:00;8.50;;;4.67;;
12163;SDS011;6145;50.192;10.064;2023-08-31T06:47:27;6.50;;;5.73;;
12163;SDS011;6145;50.192;10.064;2023-08-31T06:49:55;6.70;;;5.73;;
12163;SDS011;6145;50.192;10.064;2023-08-31T06:52:22;6.77;;;4.90;;
12163;SDS011;6145;50.192;10.064;2023-08-31T06:54:53;10.17;;;6.20;;
12163;SDS011;6145;50.192;10.064;2023-08-31T06:57:22;11.20;;;6.33;;
12163;SDS011;6145;50.192;10.064;2023-08-31T06:59:49;7.63;;;6.20;;
12163;SDS011;6145;50.192;10.064;2023-08-31T07:02:16;6.93;;;6.17;;
12163;SDS011;6145;50.192;10.064;2023-08-31T07:04:44;9.33;;;6.30;;
12163;SDS011;6145;50.192;10.064;2023-08-31T07:07:11;8.27;;;5.70;;
12163;SDS011;6145;50.192;10.064;2023-08-31T07:09:39;6.60;;;5.43;;
12163;SDS011;6145;50.192;10.064;2023-08-31T07:12:07;7.13;;;6.33;;
12163;SDS011;6145;50.192;10.064;2023-08-31T07:14:34;7.33;;;5.30;;
12163;SDS011;6145;50.192;10.064;2023-08-31T07:17:01;6.43;;;5.37;;
12163;SDS011;6145;50.192;10.064;2023-08-31T07:19:28;7.23;;;5.43;;
12163;SDS011;6145;50.192;10.064;2023-08-31T07:21:55;5.27;;;4.70;;
12163;SDS011;6145;50.192;10.064;2023-08-31T07:24:23;5.67;;;4.67;;
12163;SDS011;6145;50.192;10.064;2023-08-31T07:26:49;5.50;;;4.20;;
12163;SDS011;6145;50.192;10.064;2023-08-31T07:29:18;5.43;;;4.63;;
12163;SDS011;6145;50.192;10.064;2023-08-31T07:31:45;7.07;;;5.20;;
12163;SDS011;6145;50.192;10.064;2023-08-31T07:34:12;5.47;;;4.90;;
12163;SDS011;6145;50.192;10.064;2023-08-31T07:36:39;7.40;;;5.30;;
12163;SDS011;6145;50.192;10.064;2023-08-31T07:39:13;5.10;;;4.60;;
12163;SDS011;6145;50.192;10.064;2023-08-31T07:41:42;6.00;;;4.97;;
12163;SDS011;6145;50.192;10.064;2023-08-31T07:44:09;5.83;;;4.43;;
12163;SDS011;6145;50.192;10.064;2023-08-31T08:39:40;6.47;;;2.40;;
12163;SDS011;6145;50.192;10.064;2023-08-31T08:42:07;4.37;;;2.97;;
12163;SDS011;6145;50.192;10.064;2023-08-31T08:44:36;4.47;;;2.90;;
12163;SDS011;6145;50.192;10.064;2023-08-31T08:47:03;3.30;;;2.57;;
12163;SDS011;6145;50.192;10.064;2023-08-31T08:49:30;3.43;;;2.97;;
12163;SDS011;6145;50.192;10.064;2023-08-31T08:51:58;3.07;;;2.57;;
12163;SDS011;6145;50.192;10.064;2023-08-31T08:54:27;4.23;;;2.60;;
12163;SDS011;6145;50.192;10.064;2023-08-31T08:56:54;4.83;;;2.77;;
12163;SDS011;6145;50.192;10.064;2023-08-31T08:59:20;3.53;;;2.70;;
12163;SDS011;6145;50.192;10.064;2023-08-31T09:01:48;2.70;;;2.40;;
12163;SDS011;6145;50.192;10.064;2023-08-31T09:04:14;2.67;;;2.40;;
12163;SDS011;6145;50.192;10.064;2023-08-31T09:06:42;3.63;;;2.50;;
12163;SDS011;6145;50.192;10.064;2023-08-31T10:52:47;3.40;;;2.20;;
12163;SDS011;6145;50.192;10.064;2023-08-31T10:55:15;2.60;;;1.87;;
12163;SDS011;6145;50.192;10.064;2023-08-31T10:57:44;1.70;;;1.57;;
12163;SDS011;6145;50.192;10.064;2023-08-31T11:00:11;3.47;;;2.00;;
12163;SDS011;6145;50.192;10.064;2023-08-31T11:02:41;3.57;;;1.90;;
12163;SDS011;6145;50.192;10.064;2023-08-31T11:05:09;2.43;;;1.90;;
12163;SDS011;6145;50.192;10.064;2023-08-31T11:07:39;3.27;;;2.23;;
12163;SDS011;6145;50.192;10.064;2023-08-31T11:10:11;2.87;;;2.37;;
12163;SDS011;6145;50.192;10.064;2023-08-31T11:12:39;4.67;;;2.00;;
12163;SDS011;6145;50.192;10.064;2023-08-31T11:15:07;4.63;;;2.00;;
12163;SDS011;6145;50.192;10.064;2023-08-31T11:17:37;2.37;;;1.83;;
12163;SDS011;6145;50.192;10.064;2023-08-31T11:20:05;2.93;;;2.23;;
12163;SDS011;6145;50.192;10.064;2023-08-31T11:22:34;4.23;;;2.40;;
12163;SDS011;6145;50.192;10.064;2023-08-31T11:25:07;1.83;;;1.70;;
12163;SDS011;6145;50.192;10.064;2023-08-31T11:27:35;4.00;;;1.93;;
12163;SDS011;6145;50.192;10.064;2023-08-31T11:30:03;3.33;;;2.10;;
12163;SDS011;6145;50.192;10.064;2023-08-31T11:32:43;4.43;;;2.10;;
12163;SDS011;6145;50.192;10.064;2023-08-31T11:35:11;3.70;;;2.00;;
12163;SDS011;6145;50.192;10.064;2023-08-31T11:37:40;3.67;;;2.20;;
12163;SDS011;6145;50.192;10.064;2023-08-31T11:40:08;2.53;;;2.00;;
12163;SDS011;6145;50.192;10.064;2023-08-31T11:42:35;2.57;;;2.00;;
12163;SDS011;6145;50.192;10.064;2023-08-31T11:47:36;3.53;;;2.20;;
12163;SDS011;6145;50.192;10.064;2023-08-31T11:50:05;3.20;;;2.17;;
12163;SDS011;6145;50.192;10.064;2023-08-31T11:52:33;3.80;;;2.10;;
12163;SDS011;6145;50.192;10.064;2023-08-31T11:55:11;3.00;;;1.90;;
12163;SDS011;6145;50.192;10.064;2023-08-31T11:57:38;3.10;;;2.00;;
12163;SDS011;6145;50.192;10.064;2023-08-31T12:00:06;6.63;;;2.33;;
12163;SDS011;6145;50.192;10.064;2023-08-31T12:02:36;2.10;;;1.87;;
12163;SDS011;6145;50.192;10.064;2023-08-31T12:05:03;2.17;;;1.53;;
12163;SDS011;6145;50.192;10.064;2023-08-31T12:07:30;3.03;;;1.90;;
12163;SDS011;6145;50.192;10.064;2023-08-31T12:10:02;3.13;;;2.07;;
12163;SDS011;6145;50.192;10.064;2023-08-31T12:12:30;2.33;;;1.40;;
12163;SDS011;6145;50.192;10.064;2023-08-31T12:14:59;3.47;;;1.83;;
12163;SDS011;6145;50.192;10.064;2023-08-31T12:17:28;2.37;;;1.60;;
12163;SDS011;6145;50.192;10.064;2023-08-31T12:20:02;3.83;;;1.90;;
12163;SDS011;6145;50.192;10.064;2023-08-31T12:22:31;2.60;;;1.93;;
12163;SDS011;6145;50.192;10.064;2023-08-31T12:25:03;2.30;;;1.77;;
12163;SDS011;6145;50.192;10.064;2023-08-31T12:27:32;2.83;;;1.80;;
12163;SDS011;6145;50.192;10.064;2023-08-31T12:30:00;2.33;;;1.80;;
12163;SDS011;6145;50.192;10.064;2023-08-31T12:32:36;3.90;;;1.80;;
12163;SDS011;6145;50.192;10.064;2023-08-31T12:35:03;3.00;;;2.00;;
12163;SDS011;6145;50.192;10.064;2023-08-31T12:37:35;3.87;;;2.07;;
12163;SDS011;6145;50.192;10.064;2023-08-31T12:40:01;2.50;;;2.00;;
12163;SDS011;6145;50.192;10.064;2023-08-31T12:42:33;3.90;;;2.07;;
12163;SDS011;6145;50.192;10.064;2023-08-31T12:45:00;3.13;;;2.10;;
12163;SDS011;6145;50.192;10.064;2023-08-31T12:47:27;4.00;;;2.10;;
12163;SDS011;6145;50.192;10.064;2023-08-31T12:49:53;2.73;;;2.00;;
12163;SDS011;6145;50.192;10.064;2023-08-31T12:52:21;2.60;;;2.07;;
12163;SDS011;6145;50.192;10.064;2023-08-31T12:54:49;4.33;;;2.10;;
12163;SDS011;6145;50.192;10.064;2023-08-31T12:57:16;3.90;;;2.00;;
12163;SDS011;6145;50.192;10.064;2023-08-31T12:59:44;5.57;;;2.50;;
12163;SDS011;6145;50.192;10.064;2023-08-31T13:02:13;3.93;;;2.20;;
12163;SDS011;6145;50.192;10.064;2023-08-31T13:04:45;2.20;;;2.00;;
12163;SDS011;6145;50.192;10.064;2023-08-31T13:07:12;3.87;;;2.00;;
12163;SDS011;6145;50.192;10.064;2023-08-31T13:09:40;3.50;;;2.10;;
12163;SDS011;6145;50.192;10.064;2023-08-31T13:12:07;4.83;;;2.60;;
12163;SDS011;6145;50.192;10.064;2023-08-31T13:14:34;6.30;;;2.27;;
12163;SDS011;6145;50.192;10.064;2023-08-31T13:17:05;2.90;;;1.93;;
12163;SDS011;6145;50.192;10.064;2023-08-31T13:19:35;2.93;;;2.00;;
12163;SDS011;6145;50.192;10.064;2023-08-31T13:22:02;2.80;;;1.90;;
12163;SDS011;6145;50.192;10.064;2023-08-31T13:24:30;2.50;;;2.30;;
12163;SDS011;6145;50.192;10.064;2023-08-31T13:26:57;5.07;;;2.30;;
12163;SDS011;6145;50.192;10.064;2023-08-31T13:29:24;2.63;;;1.97;;
12163;SDS011;6145;50.192;10.064;2023-08-31T13:31:52;3.67;;;1.80;;
12163;SDS011;6145;50.192;10.064;2023-08-31T13:34:20;3.60;;;2.07;;
12163;SDS011;6145;50.192;10.064;2023-08-31T13:36:48;4.87;;;2.20;;
12163;SDS011;6145;50.192;10.064;2023-08-31T13:39:15;2.67;;;1.93;;
12163;SDS011;6145;50.192;10.064;2023-08-31T13:41:43;3.40;;;2.10;;
12163;SDS011;6145;50.192;10.064;2023-08-31T13:44:16;2.03;;;1.90;;
12163;SDS011;6145;50.192;10.064;2023-08-31T13:46:44;3.83;;;2.30;;
12163;SDS011;6145;50.192;10.064;2023-08-31T13:49:10;2.87;;;1.87;;
12163;SDS011;6145;50.192;10.064;2023-08-31T13:51:39;4.07;;;2.13;;
12163;SDS011;6145;50.192;10.064;2023-08-31T13:54:06;2.73;;;2.00;;
12163;SDS011;6145;50.192;10.064;2023-08-31T13:56:34;3.10;;;1.77;;
12163;SDS011;6145;50.192;10.064;2023-08-31T13:59:01;4.67;;;2.47;;
12163;SDS011;6145;50.192;10.064;2023-08-31T14:01:28;3.60;;;1.70;;
12163;SDS011;6145;50.192;10.064;2023-08-31T14:03:55;4.23;;;1.93;;
12163;SDS011;6145;50.192;10.064;2023-08-31T14:06:22;2.93;;;1.70;;
12163;SDS011;6145;50.192;10.064;2023-08-31T14:08:50;3.23;;;1.93;;
12163;SDS011;6145;50.192;10.064;2023-08-31T14:11:18;2.47;;;1.93;;
12163;SDS011;6145;50.192;10.064;2023-08-31T14:13:46;2.78;;;1.98;;
12163;SDS011;6145;50.192;10.064;2023-08-31T14:16:13;3.33;;;2.38;;
12163;SDS011;6145;50.192;10.064;2023-08-31T14:18:40;3.60;;;2.00;;
12163;SDS011;6145;50.192;10.064;2023-08-31T14:21:08;2.58;;;2.20;;
12163;SDS011;6145;50.192;10.064;2023-08-31T14:23:41;4.03;;;1.92;;
12163;SDS011;6145;50.192;10.064;2023-08-31T14:26:09;2.35;;;2.10;;
12163;SDS011;6145;50.192;10.064;2023-08-31T14:28:37;3.22;;;2.08;;
12163;SDS011;6145;50.192;10.064;2023-08-31T14:31:10;4.35;;;1.90;;
12163;SDS011;6145;50.192;10.064;2023-08-31T14:33:38;2.88;;;1.70;;
12163;SDS011;6145;50.192;10.064;2023-08-31T14:36:05;4.28;;;2.15;;
12163;SDS011;6145;50.192;10.064;2023-08-31T14:38:32;2.60;;;2.08;;
12163;SDS011;6145;50.192;10.064;2023-08-31T14:41:02;3.00;;;2.17;;
12163;SDS011;6145;50.192;10.064;2023-08-31T14:46:36;3.23;;;2.00;;
12163;SDS011;6145;50.192;10.064;2023-08-31T14:51:57;1.90;;;1.70;;
12163;SDS011;6145;50.192;10.064;2023-08-31T14:54:30;2.35;;;2.15;;
12163;SDS011;6145;50.192;10.064;2023-08-31T14:56:57;2.97;;;2.17;;
12163;SDS011;6145;50.192;10.064;2023-08-31T14:59:23;2.50;;;2.10;;
12163;SDS011;6145;50.192;10.064;2023-08-31T15:01:52;1.80;;;1.70;;
12163;SDS011;6145;50.192;10.064;2023-08-31T15:04:19;2.97;;;2.17;;
12163;SDS011;6145;50.192;10.064;2023-08-31T15:06:46;5.30;;;2.25;;
12163;SDS011;6145;50.192;10.064;2023-08-31T15:09:13;3.00;;;2.00;;
12163;SDS011;6145;50.192;10.064;2023-08-31T15:11:40;2.63;;;2.17;;
12163;SDS011;6145;50.192;10.064;2023-08-31T15:14:09;2.50;;;1.93;;
12163;SDS011;6145;50.192;10.064;2023-08-31T15:16:37;2.63;;;1.80;;
12163;SDS011;6145;50.192;10.064;2023-08-31T15:19:05;5.05;;;2.42;;
12163;SDS011;6145;50.192;10.064;2023-08-31T15:21:32;2.78;;;2.28;;
12163;SDS011;6145;50.192;10.064;2023-08-31T15:23:59;4.45;;;2.33;;
12163;SDS011;6145;50.192;10.064;2023-08-31T15:26:27;3.30;;;1.80;;
12163;SDS011;6145;50.192;10.064;2023-08-31T15:28:54;3.93;;;2.10;;
12163;SDS011;6145;50.192;10.064;2023-08-31T15:31:21;3.95;;;1.90;;
12163;SDS011;6145;50.192;10.064;2023-08-31T15:33:48;3.97;;;1.90;;
12163;SDS011;6145;50.192;10.064;2023-08-31T15:36:17;2.33;;;2.13;;
12163;SDS011;6145;50.192;10.064;2023-08-31T15:38:43;2.30;;;2.05;;
12163;SDS011;6145;50.192;10.064;2023-08-31T15:41:12;3.55;;;2.10;;
12163;SDS011;6145;50.192;10.064;2023-08-31T15:43:40;2.78;;;2.20;;
12163;SDS011;6145;50.192;10.064;2023-08-31T15:46:07;2.78;;;2.10;;
12163;SDS011;6145;50.192;10.064;2023-08-31T15:48:34;3.33;;;2.00;;
12163;SDS011;6145;50.192;10.064;2023-08-31T15:51:02;3.72;;;1.80;;
12163;SDS011;6145;50.192;10.064;2023-08-31T15:53:31;2.55;;;1.90;;
12163;SDS011;6145;50.192;10.064;2023-08-31T15:56:01;2.88;;;2.00;;
12163;SDS011;6145;50.192;10.064;2023-08-31T15:58:29;2.33;;;1.90;;
12163;SDS011;6145;50.192;10.064;2023-08-31T16:00:56;4.30;;;2.10;;
12163;SDS011;6145;50.192;10.064;2023-08-31T16:03:26;2.92;;;2.05;;
12163;SDS011;6145;50.192;10.064;2023-08-31T16:05:55;3.25;;;2.17;;
12163;SDS011;6145;50.192;10.064;2023-08-31T16:08:23;5.00;;;2.70;;
12163;SDS011;6145;50.192;10.064;2023-08-31T16:10:51;2.60;;;2.10;;
12163;SDS011;6145;50.192;10.064;2023-08-31T16:13:18;3.13;;;1.90;;
12163;SDS011;6145;50.192;10.064;2023-08-31T16:15:46;3.27;;;2.67;;
12163;SDS011;6145;50.192;10.064;2023-08-31T16:18:14;3.42;;;2.50;;
12163;SDS011;6145;50.192;10.064;2023-08-31T16:20:41;3.00;;;2.53;;
12163;SDS011;6145;50.192;10.064;2023-08-31T16:23:08;3.87;;;2.60;;
12163;SDS011;6145;50.192;10.064;2023-08-31T16:25:35;3.27;;;2.70;;
12163;SDS011;6145;50.192;10.064;2023-08-31T16:28:03;3.00;;;2.30;;
12163;SDS011;6145;50.192;10.064;2023-08-31T16:30:31;3.30;;;2.37;;
12163;SDS011;6145;50.192;10.064;2023-08-31T16:32:58;3.47;;;2.20;;
12163;SDS011;6145;50.192;10.064;2023-08-31T16:35:25;4.27;;;2.50;;
12163;SDS011;6145;50.192;10.064;2023-08-31T16:37:51;3.27;;;2.30;;
12163;SDS011;6145;50.192;10.064;2023-08-31T16:40:18;4.27;;;2.57;;
12163;SDS011;6145;50.192;10.064;2023-08-31T16:42:45;3.20;;;2.30;;
12163;SDS011;6145;50.192;10.064;2023-08-31T16:45:13;4.53;;;2.73;;
12163;SDS011;6145;50.192;10.064;2023-08-31T16:47:40;3.37;;;2.57;;
12163;SDS011;6145;50.192;10.064;2023-08-31T16:50:08;5.13;;;2.60;;
12163;SDS011;6145;50.192;10.064;2023-08-31T16:52:35;3.73;;;2.20;;
12163;SDS011;6145;50.192;10.064;2023-08-31T16:55:02;5.83;;;3.03;;
12163;SDS011;6145;50.192;10.064;2023-08-31T16:57:30;6.63;;;2.77;;
12163;SDS011;6145;50.192;10.064;2023-08-31T16:59:56;3.73;;;2.80;;
12163;SDS011;6145;50.192;10.064;2023-08-31T17:02:25;4.57;;;2.73;;
12163;SDS011;6145;50.192;10.064;2023-08-31T17:04:51;2.63;;;2.27;;
12163;SDS011;6145;50.192;10.064;2023-08-31T17:07:18;2.47;;;2.07;;
12163;SDS011;6145;50.192;10.064;2023-08-31T17:09:45;4.40;;;2.40;;
12163;SDS011;6145;50.192;10.064;2023-08-31T17:12:12;5.70;;;2.67;;
12163;SDS011;6145;50.192;10.064;2023-08-31T17:14:39;3.60;;;2.43;;
12163;SDS011;6145;50.192;10.064;2023-08-31T17:17:10;3.77;;;2.60;;
12163;SDS011;6145;50.192;10.064;2023-08-31T17:19:38;5.67;;;2.50;;
12163;SDS011;6145;50.192;10.064;2023-08-31T17:22:05;3.20;;;2.33;;
12163;SDS011;6145;50.192;10.064;2023-08-31T17:24:32;3.47;;;2.43;;
12163;SDS011;6145;50.192;10.064;2023-08-31T17:26:59;5.60;;;2.50;;
12163;SDS011;6145;50.192;10.064;2023-08-31T17:29:27;6.23;;;2.60;;
12163;SDS011;6145;50.192;10.064;2023-08-31T17:31:54;4.67;;;2.97;;
12163;SDS011;6145;50.192;10.064;2023-08-31T17:34:21;6.03;;;2.33;;
12163;SDS011;6145;50.192;10.064;2023-08-31T17:36:49;3.87;;;2.40;;
12163;SDS011;6145;50.192;10.064;2023-08-31T17:39:16;5.40;;;2.93;;
12163;SDS011;6145;50.192;10.064;2023-08-31T17:41:43;4.90;;;2.40;;
12163;SDS011;6145;50.192;10.064;2023-08-31T17:44:17;4.70;;;3.03;;
12163;SDS011;6145;50.192;10.064;2023-08-31T17:46:43;5.00;;;2.40;;
12163;SDS011;6145;50.192;10.064;2023-08-31T17:49:10;3.53;;;2.40;;
12163;SDS011;6145;50.192;10.064;2023-08-31T17:51:37;5.50;;;2.73;;
12163;SDS011;6145;50.192;10.064;2023-08-31T17:54:06;4.00;;;2.60;;
12163;SDS011;6145;50.192;10.064;2023-08-31T17:56:33;3.63;;;2.43;;
12163;SDS011;6145;50.192;10.064;2023-08-31T17:58:59;7.00;;;2.70;;
12163;SDS011;6145;50.192;10.064;2023-08-31T18:01:28;5.07;;;2.73;;
12163;SDS011;6145;50.192;10.064;2023-08-31T18:03:55;3.93;;;2.70;;
12163;SDS011;6145;50.192;10.064;2023-08-31T18:06:23;3.13;;;2.40;;
12163;SDS011;6145;50.192;10.064;2023-08-31T18:08:50;4.47;;;2.60;;
12163;SDS011;6145;50.192;10.064;2023-08-31T18:11:18;5.07;;;2.70;;
12163;SDS011;6145;50.192;10.064;2023-08-31T18:13:45;3.90;;;2.47;;
12163;SDS011;6145;50.192;10.064;2023-08-31T18:16:12;3.70;;;2.50;;
12163;SDS011;6145;50.192;10.064;2023-08-31T18:18:38;3.87;;;2.57;;
12163;SDS011;6145;50.192;10.064;2023-08-31T18:21:05;4.70;;;2.53;;
12163;SDS011;6145;50.192;10.064;2023-08-31T18:23:32;4.97;;;2.53;;
12163;SDS011;6145;50.192;10.064;2023-08-31T18:25:59;3.60;;;2.40;;
12163;SDS011;6145;50.192;10.064;2023-08-31T18:28:29;4.23;;;2.87;;
12163;SDS011;6145;50.192;10.064;2023-08-31T18:30:58;5.23;;;2.70;;
12163;SDS011;6145;50.192;10.064;2023-08-31T18:33:26;5.40;;;2.90;;
12163;SDS011;6145;50.192;10.064;2023-08-31T18:35:54;5.20;;;2.70;;
12163;SDS011;6145;50.192;10.064;2023-08-31T18:38:23;7.07;;;2.67;;
12163;SDS011;6145;50.192;10.064;2023-08-31T18:40:52;4.33;;;2.50;;
12163;SDS011;6145;50.192;10.064;2023-08-31T18:43:20;4.33;;;2.30;;
12163;SDS011;6145;50.192;10.064;2023-08-31T18:45:50;3.63;;;2.67;;
12163;SDS011;6145;50.192;10.064;2023-08-31T18:48:18;6.90;;;3.17;;
12163;SDS011;6145;50.192;10.064;2023-08-31T18:50:45;5.53;;;2.70;;
12163;SDS011;6145;50.192;10.064;2023-08-31T18:53:17;3.90;;;2.83;;
12163;SDS011;6145;50.192;10.064;2023-08-31T18:55:46;6.70;;;2.70;;
12163;SDS011;6145;50.192;10.064;2023-08-31T18:58:13;6.33;;;2.90;;
12163;SDS011;6145;50.192;10.064;2023-08-31T19:00:40;5.10;;;2.73;;
12163;SDS011;6145;50.192;10.064;2023-08-31T19:03:09;4.47;;;3.07;;
12163;SDS011;6145;50.192;10.064;2023-08-31T19:05:39;4.50;;;2.60;;
12163;SDS011;6145;50.192;10.064;2023-08-31T19:08:11;4.67;;;3.17;;
12163;SDS011;6145;50.192;10.064;2023-08-31T19:10:40;6.93;;;3.37;;
12163;SDS011;6145;50.192;10.064;2023-08-31T19:13:07;4.47;;;2.63;;
12163;SDS011;6145;50.192;10.064;2023-08-31T19:15:37;5.63;;;2.47;;
12163;SDS011;6145;50.192;10.064;2023-08-31T19:18:04;7.33;;;2.77;;
12163;SDS011;6145;50.192;10.064;2023-08-31T19:20:34;5.57;;;2.73;;
12163;SDS011;6145;50.192;10.064;2023-08-31T19:23:04;5.50;;;3.10;;
12163;SDS011;6145;50.192;10.064;2023-08-31T19:25:34;5.63;;;2.70;;
12163;SDS011;6145;50.192;10.064;2023-08-31T19:28:05;4.53;;;2.73;;
12163;SDS011;6145;50.192;10.064;2023-08-31T19:30:49;5.80;;;2.80;;
12163;SDS011;6145;50.192;10.064;2023-08-31T19:33:21;3.80;;;2.50;;
12163;SDS011;6145;50.192;10.064;2023-08-31T19:36:00;3.53;;;2.60;;
12163;SDS011;6145;50.192;10.064;2023-08-31T19:38:30;3.90;;;2.60;;
12163;SDS011;6145;50.192;10.064;2023-08-31T19:41:07;6.47;;;3.20;;
12163;SDS011;6145;50.192;10.064;2023-08-31T19:43:43;6.70;;;3.27;;
12163;SDS011;6145;50.192;10.064;2023-08-31T19:46:13;6.77;;;2.93;;
12163;SDS011;6145;50.192;10.064;2023-08-31T19:48:41;4.60;;;2.77;;
12163;SDS011;6145;50.192;10.064;2023-08-31T19:51:17;3.40;;;2.53;;
12163;SDS011;6145;50.192;10.064;2023-08-31T19:53:50;6.10;;;3.10;;
12163;SDS011;6145;50.192;10.064;2023-08-31T19:56:19;4.17;;;2.97;;
12163;SDS011;6145;50.192;10.064;2023-08-31T19:58:47;5.73;;;3.27;;
12163;SDS011;6145;50.192;10.064;2023-08-31T20:01:24;3.13;;;2.30;;
12163;SDS011;6145;50.192;10.064;2023-08-31T20:03:59;5.47;;;2.70;;
12163;SDS011;6145;50.192;10.064;2023-08-31T20:09:20;4.83;;;2.80;;
12163;SDS011;6145;50.192;10.064;2023-08-31T20:12:21;4.10;;;2.43;;
12163;SDS011;6145;50.192;10.064;2023-08-31T20:14:54;5.20;;;2.50;;
12163;SDS011;6145;50.192;10.064;2023-08-31T20:17:51;7.57;;;3.10;;
12163;SDS011;6145;50.192;10.064;2023-08-31T20:20:26;5.13;;;2.70;;
12163;SDS011;6145;50.192;10.064;2023-08-31T20:22:56;5.77;;;3.17;;
